sensor_id;sensor_type;location;lat;lon;timestamp;pressure;altitude;pressure_sealevel;temperature;humidity
49943;BME280;36011;53.362;58.948;2024-01-30T00:00:49;97425.69;;;-6.26;53.92
49943;BME280;36011;53.362;58.948;2024-01-30T00:03:50;97417.31;;;-6.13;53.67
49943;BME280;36011;53.362;58.948;2024-01-30T00:06:53;97413.06;;;-6.11;53.31
49943;BME280;36011;53.362;58.948;2024-01-30T00:09:57;97412.31;;;-5.95;54.52
49943;BME280;36011;53.362;58.948;2024-01-30T00:12:58;97399.50;;;-5.95;54.00
49943;BME280;36011;53.362;58.948;2024-01-30T00:15:59;97395.31;;;-5.83;53.87
49943;BME280;36011;53.362;58.948;2024-01-30T00:19:03;97388.50;;;-5.81;53.78
49943;BME280;36011;53.362;58.948;2024-01-30T00:22:04;97376.56;;;-5.76;54.55
49943;BME280;36011;53.362;58.948;2024-01-30T00:25:09;97371.50;;;-5.70;55.33
49943;BME280;36011;53.362;58.948;2024-01-30T00:28:11;97365.56;;;-5.66;53.39
49943;BME280;36011;53.362;58.948;2024-01-30T00:31:12;97361.31;;;-5.58;54.76
49943;BME280;36011;53.362;58.948;2024-01-30T00:34:18;97371.56;;;-5.58;54.58
49943;BME280;36011;53.362;58.948;2024-01-30T00:37:21;97359.59;;;-5.62;55.40
49943;BME280;36011;53.362;58.948;2024-01-30T00:40:31;97364.66;;;-5.71;56.12
49943;BME280;36011;53.362;58.948;2024-01-30T00:43:34;97355.22;;;-5.77;55.23
49943;BME280;36011;53.362;58.948;2024-01-30T00:46:35;97353.50;;;-5.79;55.53
49943;BME280;36011;53.362;58.948;2024-01-30T00:49:36;97347.44;;;-5.88;56.10
49943;BME280;36011;53.362;58.948;2024-01-30T00:52:38;97345.66;;;-6.01;56.50
49943;BME280;36011;53.362;58.948;2024-01-30T00:55:43;97345.66;;;-6.04;56.52
49943;BME280;36011;53.362;58.948;2024-01-30T00:58:44;97332.69;;;-6.21;56.79
49943;BME280;36011;53.362;58.948;2024-01-30T01:01:45;97331.72;;;-6.37;57.31
49943;BME280;36011;53.362;58.948;2024-01-30T01:04:46;97329.00;;;-6.52;57.87
49943;BME280;36011;53.362;58.948;2024-01-30T01:07:47;97324.72;;;-6.56;57.77
49943;BME280;36011;53.362;58.948;2024-01-30T01:10:49;97327.25;;;-6.59;58.63
49943;BME280;36011;53.362;58.948;2024-01-30T01:13:49;97325.47;;;-6.68;58.56
49943;BME280;36011;53.362;58.948;2024-01-30T01:16:53;97322.72;;;-6.83;58.27
49943;BME280;36011;53.362;58.948;2024-01-30T01:19:58;97321.88;;;-6.82;58.76
49943;BME280;36011;53.362;58.948;2024-01-30T01:23:02;97310.69;;;-6.92;59.20
49943;BME280;36011;53.362;58.948;2024-01-30T01:26:05;97304.63;;;-7.00;59.23
49943;BME280;36011;53.362;58.948;2024-01-30T01:29:06;97312.19;;;-7.12;58.78
49943;BME280;36011;53.362;58.948;2024-01-30T01:32:14;97306.97;;;-7.21;58.47
49943;BME280;36011;53.362;58.948;2024-01-30T01:35:15;97313.66;;;-7.31;59.50
49943;BME280;36011;53.362;58.948;2024-01-30T01:38:19;97306.88;;;-7.28;59.38
49943;BME280;36011;53.362;58.948;2024-01-30T01:41:23;97305.91;;;-7.37;59.96
49943;BME280;36011;53.362;58.948;2024-01-30T01:44:26;97298.06;;;-7.51;59.69
49943;BME280;36011;53.362;58.948;2024-01-30T01:47:27;97310.06;;;-7.47;60.06
49943;BME280;36011;53.362;58.948;2024-01-30T01:50:30;97301.44;;;-7.55;60.21
49943;BME280;36011;53.362;58.948;2024-01-30T01:53:31;97299.47;;;-7.75;60.07
49943;BME280;36011;53.362;58.948;2024-01-30T01:56:36;97297.63;;;-7.85;60.53
49943;BME280;36011;53.362;58.948;2024-01-30T01:59:41;97300.91;;;-7.95;61.10
49943;BME280;36011;53.362;58.948;2024-01-30T02:02:44;97301.56;;;-8.08;60.86
49943;BME280;36011;53.362;58.948;2024-01-30T02:05:46;97298.81;;;-8.21;60.46
49943;BME280;36011;53.362;58.948;2024-01-30T02:08:49;97298.66;;;-8.30;61.08
49943;BME280;36011;53.362;58.948;2024-01-30T02:11:53;97295.16;;;-8.35;61.23
49943;BME280;36011;53.362;58.948;2024-01-30T02:14:54;97293.47;;;-8.36;60.55
49943;BME280;36011;53.362;58.948;2024-01-30T02:17:58;97296.84;;;-8.40;60.84
49943;BME280;36011;53.362;58.948;2024-01-30T02:21:19;97289.91;;;-8.47;60.49
49943;BME280;36011;53.362;58.948;2024-01-30T02:24:20;97288.25;;;-8.45;60.43
49943;BME280;36011;53.362;58.948;2024-01-30T02:27:24;97279.75;;;-8.44;60.63
49943;BME280;36011;53.362;58.948;2024-01-30T02:30:25;97277.06;;;-8.53;60.83
49943;BME280;36011;53.362;58.948;2024-01-30T02:33:26;97273.59;;;-8.57;60.30
49943;BME280;36011;53.362;58.948;2024-01-30T02:36:27;97274.41;;;-8.60;60.52
49943;BME280;36011;53.362;58.948;2024-01-30T02:39:30;97269.09;;;-8.72;60.54
49943;BME280;36011;53.362;58.948;2024-01-30T02:42:33;97272.34;;;-8.82;60.92
49943;BME280;36011;53.362;58.948;2024-01-30T02:45:34;97268.88;;;-8.84;60.76
49943;BME280;36011;53.362;58.948;2024-01-30T02:48:38;97263.69;;;-8.90;60.92
49943;BME280;36011;53.362;58.948;2024-01-30T02:51:39;97263.59;;;-8.96;61.11
49943;BME280;36011;53.362;58.948;2024-01-30T02:54:40;97259.34;;;-8.96;61.04
49943;BME280;36011;53.362;58.948;2024-01-30T02:57:42;97264.44;;;-8.96;61.04
49943;BME280;36011;53.362;58.948;2024-01-30T03:00:43;97251.66;;;-8.97;61.46
49943;BME280;36011;53.362;58.948;2024-01-30T03:03:44;97246.53;;;-8.97;61.25
49943;BME280;36011;53.362;58.948;2024-01-30T03:06:45;97252.50;;;-8.98;61.43
49943;BME280;36011;53.362;58.948;2024-01-30T03:09:47;97248.28;;;-8.96;60.73
49943;BME280;36011;53.362;58.948;2024-01-30T03:12:51;97247.78;;;-8.77;60.10
49943;BME280;36011;53.362;58.948;2024-01-30T03:15:54;97241.88;;;-8.73;60.24
49943;BME280;36011;53.362;58.948;2024-01-30T03:18:58;97254.84;;;-8.59;61.88
49943;BME280;36011;53.362;58.948;2024-01-30T03:22:01;97244.81;;;-8.48;62.27
49943;BME280;36011;53.362;58.948;2024-01-30T03:25:02;97238.16;;;-8.39;63.32
49943;BME280;36011;53.362;58.948;2024-01-30T03:28:05;97231.84;;;-8.62;63.17
49943;BME280;36011;53.362;58.948;2024-01-30T03:31:14;97230.78;;;-8.76;62.85
49943;BME280;36011;53.362;58.948;2024-01-30T03:34:17;97232.28;;;-8.88;62.95
49943;BME280;36011;53.362;58.948;2024-01-30T03:37:23;97236.44;;;-8.94;63.47
49943;BME280;36011;53.362;58.948;2024-01-30T03:40:29;97222.69;;;-9.01;63.31
49943;BME280;36011;53.362;58.948;2024-01-30T03:43:38;97225.19;;;-9.06;63.67
49943;BME280;36011;53.362;58.948;2024-01-30T03:46:39;97224.34;;;-9.05;62.89
49943;BME280;36011;53.362;58.948;2024-01-30T03:49:40;97226.38;;;-8.85;63.43
49943;BME280;36011;53.362;58.948;2024-01-30T03:52:44;97227.19;;;-8.88;62.71
49943;BME280;36011;53.362;58.948;2024-01-30T03:55:47;97225.53;;;-8.86;62.68
49943;BME280;36011;53.362;58.948;2024-01-30T03:58:48;97227.13;;;-8.91;62.50
49943;BME280;36011;53.362;58.948;2024-01-30T04:01:51;97226.06;;;-9.04;62.89
49943;BME280;36011;53.362;58.948;2024-01-30T04:04:55;97227.59;;;-9.12;63.14
49943;BME280;36011;53.362;58.948;2024-01-30T04:07:58;97227.56;;;-9.15;63.01
49943;BME280;36011;53.362;58.948;2024-01-30T04:11:03;97222.44;;;-9.15;63.35
49943;BME280;36011;53.362;58.948;2024-01-30T04:14:05;97230.09;;;-9.15;62.85
49943;BME280;36011;53.362;58.948;2024-01-30T04:17:06;97225.91;;;-9.13;63.21
49943;BME280;36011;53.362;58.948;2024-01-30T04:20:13;97219.19;;;-9.08;62.95
49943;BME280;36011;53.362;58.948;2024-01-30T04:23:15;97222.69;;;-9.02;62.24
49943;BME280;36011;53.362;58.948;2024-01-30T04:26:18;97213.41;;;-8.99;62.01
49943;BME280;36011;53.362;58.948;2024-01-30T04:29:22;97217.78;;;-8.90;61.77
49943;BME280;36011;53.362;58.948;2024-01-30T04:32:24;97212.00;;;-8.80;61.98
49943;BME280;36011;53.362;58.948;2024-01-30T04:35:27;97211.34;;;-8.67;61.80
49943;BME280;36011;53.362;58.948;2024-01-30T04:38:31;97207.31;;;-8.52;61.30
49943;BME280;36011;53.362;58.948;2024-01-30T04:41:34;97207.53;;;-8.37;61.06
49943;BME280;36011;53.362;58.948;2024-01-30T04:44:37;97211.94;;;-8.25;60.87
49943;BME280;36011;53.362;58.948;2024-01-30T04:47:40;97201.03;;;-8.15;60.49
49943;BME280;36011;53.362;58.948;2024-01-30T04:50:44;97204.56;;;-8.05;60.19
49943;BME280;36011;53.362;58.948;2024-01-30T04:53:47;97205.47;;;-8.00;60.37
49943;BME280;36011;53.362;58.948;2024-01-30T04:56:50;97201.31;;;-7.95;59.92
49943;BME280;36011;53.362;58.948;2024-01-30T04:59:51;97194.50;;;-7.93;60.11
49943;BME280;36011;53.362;58.948;2024-01-30T05:02:54;97188.56;;;-7.92;59.90
49943;BME280;36011;53.362;58.948;2024-01-30T05:05:58;97193.69;;;-7.92;59.55
49943;BME280;36011;53.362;58.948;2024-01-30T05:09:04;97192.78;;;-7.93;59.21
49943;BME280;36011;53.362;58.948;2024-01-30T05:12:14;97189.41;;;-7.92;59.35
49943;BME280;36011;53.362;58.948;2024-01-30T05:15:19;97188.59;;;-7.89;58.93
49943;BME280;36011;53.362;58.948;2024-01-30T05:18:24;97181.84;;;-7.84;58.61
49943;BME280;36011;53.362;58.948;2024-01-30T05:21:28;97184.44;;;-7.81;59.25
49943;BME280;36011;53.362;58.948;2024-01-30T05:24:30;97180.19;;;-7.79;58.58
49943;BME280;36011;53.362;58.948;2024-01-30T05:27:34;97174.22;;;-7.81;59.26
49943;BME280;36011;53.362;58.948;2024-01-30T05:30:38;97169.94;;;-7.82;58.95
49943;BME280;36011;53.362;58.948;2024-01-30T05:33:42;97165.69;;;-7.83;58.93
49943;BME280;36011;53.362;58.948;2024-01-30T05:36:45;97158.88;;;-7.82;58.72
49943;BME280;36011;53.362;58.948;2024-01-30T05:39:48;97155.47;;;-7.81;59.04
49943;BME280;36011;53.362;58.948;2024-01-30T05:42:54;97158.13;;;-7.74;58.18
49943;BME280;36011;53.362;58.948;2024-01-30T05:46:00;97161.53;;;-7.75;58.16
49943;BME280;36011;53.362;58.948;2024-01-30T05:49:06;97157.25;;;-7.74;58.46
49943;BME280;36011;53.362;58.948;2024-01-30T05:52:10;97154.78;;;-7.70;58.90
49943;BME280;36011;53.362;58.948;2024-01-30T05:55:11;97146.34;;;-7.59;58.53
49943;BME280;36011;53.362;58.948;2024-01-30T05:58:15;97161.75;;;-7.50;58.39
49943;BME280;36011;53.362;58.948;2024-01-30T06:01:18;97143.06;;;-7.49;59.10
49943;BME280;36011;53.362;58.948;2024-01-30T06:04:19;97143.94;;;-7.46;58.55
49943;BME280;36011;53.362;58.948;2024-01-30T06:07:20;97143.13;;;-7.40;58.58
49943;BME280;36011;53.362;58.948;2024-01-30T06:10:25;97140.78;;;-7.21;58.02
49943;BME280;36011;53.362;58.948;2024-01-30T06:13:26;97134.84;;;-7.14;57.95
49943;BME280;36011;53.362;58.948;2024-01-30T06:16:31;97141.06;;;-6.86;57.80
49943;BME280;36011;53.362;58.948;2024-01-30T06:19:32;97140.91;;;-4.44;58.35
49943;BME280;36011;53.362;58.948;2024-01-30T06:22:36;97143.38;;;-2.58;53.56
49943;BME280;36011;53.362;58.948;2024-01-30T06:25:38;97142.81;;;-2.96;52.35
49943;BME280;36011;53.362;58.948;2024-01-30T06:28:40;97145.66;;;-3.40;53.17
49943;BME280;36011;53.362;58.948;2024-01-30T06:31:42;97133.34;;;-2.92;53.35
49943;BME280;36011;53.362;58.948;2024-01-30T06:34:45;97136.50;;;-1.11;52.26
49943;BME280;36011;53.362;58.948;2024-01-30T06:37:46;97138.97;;;-0.48;49.98
49943;BME280;36011;53.362;58.948;2024-01-30T06:40:47;97128.00;;;-0.62;50.07
49943;BME280;36011;53.362;58.948;2024-01-30T06:43:50;97120.31;;;1.77;47.97
49943;BME280;36011;53.362;58.948;2024-01-30T06:46:53;97121.31;;;4.97;43.11
49943;BME280;36011;53.362;58.948;2024-01-30T06:49:54;97121.94;;;9.46;37.82
49943;BME280;36011;53.362;58.948;2024-01-30T06:52:57;97113.66;;;13.36;33.13
49943;BME280;36011;53.362;58.948;2024-01-30T06:56:00;97119.31;;;16.15;30.48
49943;BME280;36011;53.362;58.948;2024-01-30T06:59:04;97109.19;;;18.13;29.15
49943;BME280;36011;53.362;58.948;2024-01-30T07:02:08;97102.19;;;19.53;28.32
49943;BME280;36011;53.362;58.948;2024-01-30T07:05:11;97100.28;;;20.71;26.78
49943;BME280;36011;53.362;58.948;2024-01-30T07:08:15;97093.28;;;21.97;27.13
49943;BME280;36011;53.362;58.948;2024-01-30T07:11:24;97090.38;;;23.13;25.89
49943;BME280;36011;53.362;58.948;2024-01-30T07:14:29;97087.13;;;24.19;25.34
49943;BME280;36011;53.362;58.948;2024-01-30T07:17:36;97074.03;;;25.07;24.70
49943;BME280;36011;53.362;58.948;2024-01-30T07:20:39;97080.56;;;25.93;23.97
49943;BME280;36011;53.362;58.948;2024-01-30T07:23:49;97076.19;;;26.85;23.47
49943;BME280;36011;53.362;58.948;2024-01-30T07:26:51;97071.03;;;27.66;22.60
49943;BME280;36011;53.362;58.948;2024-01-30T07:29:56;97064.19;;;28.45;20.37
49943;BME280;36011;53.362;58.948;2024-01-30T07:33:00;97050.00;;;28.63;19.59
49943;BME280;36011;53.362;58.948;2024-01-30T07:36:04;97037.50;;;28.69;21.30
49943;BME280;36011;53.362;58.948;2024-01-30T07:39:07;97036.16;;;29.18;20.85
49943;BME280;36011;53.362;58.948;2024-01-30T07:42:11;97038.78;;;29.44;19.98
49943;BME280;36011;53.362;58.948;2024-01-30T07:45:14;97027.38;;;29.36;20.89
49943;BME280;36011;53.362;58.948;2024-01-30T07:48:20;97013.06;;;29.67;18.99
49943;BME280;36011;53.362;58.948;2024-01-30T07:51:24;97016.22;;;29.95;20.11
49943;BME280;36011;53.362;58.948;2024-01-30T07:54:25;97013.47;;;30.02;19.27
49943;BME280;36011;53.362;58.948;2024-01-30T07:57:26;97014.22;;;29.84;19.35
49943;BME280;36011;53.362;58.948;2024-01-30T08:00:28;97015.25;;;30.15;19.00
49943;BME280;36011;53.362;58.948;2024-01-30T08:03:30;96999.25;;;30.57;18.08
49943;BME280;36011;53.362;58.948;2024-01-30T08:06:32;96999.13;;;30.52;17.14
49943;BME280;36011;53.362;58.948;2024-01-30T08:09:35;96998.44;;;30.81;17.78
49943;BME280;36011;53.362;58.948;2024-01-30T08:12:37;96993.88;;;30.75;16.63
49943;BME280;36011;53.362;58.948;2024-01-30T08:15:41;96985.56;;;30.20;16.12
49943;BME280;36011;53.362;58.948;2024-01-30T08:18:48;96982.50;;;30.41;16.73
49943;BME280;36011;53.362;58.948;2024-01-30T08:21:52;96969.41;;;30.75;15.77
49943;BME280;36011;53.362;58.948;2024-01-30T08:24:56;96970.13;;;30.46;15.96
49943;BME280;36011;53.362;58.948;2024-01-30T08:27:59;96966.97;;;30.92;15.63
49943;BME280;36011;53.362;58.948;2024-01-30T08:31:03;96952.84;;;31.20;15.02
49943;BME280;36011;53.362;58.948;2024-01-30T08:34:06;96950.56;;;31.36;15.50
49943;BME280;36011;53.362;58.948;2024-01-30T08:37:09;96932.16;;;30.14;15.68
49943;BME280;36011;53.362;58.948;2024-01-30T08:40:11;96936.31;;;29.60;14.96
49943;BME280;36011;53.362;58.948;2024-01-30T08:43:15;96925.75;;;29.00;15.61
49943;BME280;36011;53.362;58.948;2024-01-30T08:46:19;96919.59;;;28.73;14.13
49943;BME280;36011;53.362;58.948;2024-01-30T08:49:21;96917.50;;;29.33;14.46
49943;BME280;36011;53.362;58.948;2024-01-30T08:52:24;96913.94;;;30.21;13.53
49943;BME280;36011;53.362;58.948;2024-01-30T08:55:25;96916.31;;;30.98;14.06
49943;BME280;36011;53.362;58.948;2024-01-30T08:58:27;96913.00;;;30.96;13.78
49943;BME280;36011;53.362;58.948;2024-01-30T09:01:35;96904.53;;;30.67;13.53
49943;BME280;36011;53.362;58.948;2024-01-30T09:04:37;96902.41;;;30.32;12.53
49943;BME280;36011;53.362;58.948;2024-01-30T09:07:42;96901.03;;;29.91;13.99
49943;BME280;36011;53.362;58.948;2024-01-30T09:10:46;96896.97;;;29.82;14.26
49943;BME280;36011;53.362;58.948;2024-01-30T09:13:49;96886.00;;;29.32;14.31
49943;BME280;36011;53.362;58.948;2024-01-30T09:16:50;96876.16;;;29.06;14.09
49943;BME280;36011;53.362;58.948;2024-01-30T09:19:51;96869.53;;;28.88;14.09
49943;BME280;36011;53.362;58.948;2024-01-30T09:22:52;96872.22;;;28.37;14.19
49943;BME280;36011;53.362;58.948;2024-01-30T09:25:58;96871.41;;;27.70;13.95
49943;BME280;36011;53.362;58.948;2024-01-30T09:29:01;96856.91;;;26.90;13.62
49943;BME280;36011;53.362;58.948;2024-01-30T09:32:05;96857.38;;;25.67;14.43
49943;BME280;36011;53.362;58.948;2024-01-30T09:35:10;96855.53;;;25.68;14.85
49943;BME280;36011;53.362;58.948;2024-01-30T09:38:14;96850.03;;;26.46;14.19
49943;BME280;36011;53.362;58.948;2024-01-30T09:41:18;96841.41;;;26.22;14.08
49943;BME280;36011;53.362;58.948;2024-01-30T09:44:28;96844.09;;;25.87;14.47
49943;BME280;36011;53.362;58.948;2024-01-30T09:47:39;96839.25;;;25.33;14.15
49943;BME280;36011;53.362;58.948;2024-01-30T09:50:43;96840.91;;;25.56;14.24
49943;BME280;36011;53.362;58.948;2024-01-30T09:53:46;96821.44;;;25.53;13.66
49943;BME280;36011;53.362;58.948;2024-01-30T09:56:47;96820.25;;;24.98;14.48
49943;BME280;36011;53.362;58.948;2024-01-30T09:59:51;96814.56;;;24.50;13.68
49943;BME280;36011;53.362;58.948;2024-01-30T10:02:52;96814.00;;;23.43;14.50
49943;BME280;36011;53.362;58.948;2024-01-30T10:05:53;96811.97;;;22.45;14.47
49943;BME280;36011;53.362;58.948;2024-01-30T10:08:58;96806.84;;;21.05;14.92
49943;BME280;36011;53.362;58.948;2024-01-30T10:12:01;96795.00;;;21.16;15.38
49943;BME280;36011;53.362;58.948;2024-01-30T10:15:07;96796.00;;;22.12;14.67
49943;BME280;36011;53.362;58.948;2024-01-30T10:18:11;96783.94;;;22.78;14.47
49943;BME280;36011;53.362;58.948;2024-01-30T10:21:13;96789.63;;;22.21;14.08
49943;BME280;36011;53.362;58.948;2024-01-30T10:24:13;96790.66;;;21.23;15.11
49943;BME280;36011;53.362;58.948;2024-01-30T10:27:14;96786.97;;;20.83;13.82
49943;BME280;36011;53.362;58.948;2024-01-30T10:30:15;96774.25;;;19.76;15.27
49943;BME280;36011;53.362;58.948;2024-01-30T10:33:19;96773.53;;;18.78;15.64
49943;BME280;36011;53.362;58.948;2024-01-30T10:36:20;96776.16;;;17.49;16.28
49943;BME280;36011;53.362;58.948;2024-01-30T10:39:29;96769.09;;;16.72;17.14
49943;BME280;36011;53.362;58.948;2024-01-30T10:42:31;96759.88;;;16.28;17.37
49943;BME280;36011;53.362;58.948;2024-01-30T10:45:34;96764.63;;;16.73;16.56
49943;BME280;36011;53.362;58.948;2024-01-30T10:48:36;96764.91;;;15.71;17.09
49943;BME280;36011;53.362;58.948;2024-01-30T10:51:43;96754.56;;;12.38;19.46
49943;BME280;36011;53.362;58.948;2024-01-30T10:54:46;96753.75;;;8.82;22.41
49943;BME280;36011;53.362;58.948;2024-01-30T10:57:50;96753.31;;;6.34;25.49
49943;BME280;36011;53.362;58.948;2024-01-30T11:00:53;96750.34;;;4.53;26.72
49943;BME280;36011;53.362;58.948;2024-01-30T11:03:55;96750.31;;;3.24;27.89
49943;BME280;36011;53.362;58.948;2024-01-30T11:06:57;96747.91;;;2.47;28.50
49943;BME280;36011;53.362;58.948;2024-01-30T11:13:12;96743.63;;;1.10;29.60
49943;BME280;36011;53.362;58.948;2024-01-30T11:16:14;96741.78;;;0.21;31.09
49943;BME280;36011;53.362;58.948;2024-01-30T11:19:17;96740.91;;;-0.48;31.41
49943;BME280;36011;53.362;58.948;2024-01-30T11:22:26;96742.78;;;-0.93;32.78
49943;BME280;36011;53.362;58.948;2024-01-30T11:25:29;96726.31;;;-1.73;34.60
49943;BME280;36011;53.362;58.948;2024-01-30T11:28:34;96732.28;;;-2.17;35.23
49943;BME280;36011;53.362;58.948;2024-01-30T11:31:39;96724.03;;;-2.41;33.99
49943;BME280;36011;53.362;58.948;2024-01-30T11:34:43;96722.66;;;-2.60;33.73
49943;BME280;36011;53.362;58.948;2024-01-30T11:37:46;96723.81;;;-2.80;33.55
49943;BME280;36011;53.362;58.948;2024-01-30T11:40:52;96721.44;;;-2.95;34.25
49943;BME280;36011;53.362;58.948;2024-01-30T11:43:58;96721.94;;;-2.68;33.65
49943;BME280;36011;53.362;58.948;2024-01-30T11:47:00;96714.41;;;-0.95;32.17
49943;BME280;36011;53.362;58.948;2024-01-30T11:50:02;96730.22;;;0.96;31.48
49943;BME280;36011;53.362;58.948;2024-01-30T11:53:04;96712.41;;;1.69;28.80
49943;BME280;36011;53.362;58.948;2024-01-30T11:56:08;96708.28;;;1.07;29.20
49943;BME280;36011;53.362;58.948;2024-01-30T11:59:11;96711.56;;;-0.45;30.82
49943;BME280;36011;53.362;58.948;2024-01-30T12:02:16;96700.44;;;-1.68;32.05
49943;BME280;36011;53.362;58.948;2024-01-30T12:05:22;96711.44;;;-2.56;33.56
49943;BME280;36011;53.362;58.948;2024-01-30T12:08:26;96703.78;;;-3.21;34.57
49943;BME280;36011;53.362;58.948;2024-01-30T12:11:30;96705.25;;;-3.71;35.75
49943;BME280;36011;53.362;58.948;2024-01-30T12:14:33;96699.72;;;-4.13;36.73
49943;BME280;36011;53.362;58.948;2024-01-30T12:17:34;96702.59;;;-4.45;36.26
49943;BME280;36011;53.362;58.948;2024-01-30T12:20:38;96692.53;;;-4.73;36.40
49943;BME280;36011;53.362;58.948;2024-01-30T12:23:42;96695.28;;;-4.99;37.45
49943;BME280;36011;53.362;58.948;2024-01-30T12:26:46;96700.59;;;-5.27;37.37
49943;BME280;36011;53.362;58.948;2024-01-30T12:29:55;96693.91;;;-5.55;37.59
49943;BME280;36011;53.362;58.948;2024-01-30T12:32:59;96685.47;;;-5.82;39.20
49943;BME280;36011;53.362;58.948;2024-01-30T12:36:03;96683.03;;;-6.05;38.92
49943;BME280;36011;53.362;58.948;2024-01-30T12:39:10;96689.91;;;-6.19;39.40
49943;BME280;36011;53.362;58.948;2024-01-30T12:42:14;96686.50;;;-6.34;40.85
49943;BME280;36011;53.362;58.948;2024-01-30T12:45:15;96685.66;;;-6.49;40.40
49943;BME280;36011;53.362;58.948;2024-01-30T12:48:18;96687.38;;;-6.65;40.36
49943;BME280;36011;53.362;58.948;2024-01-30T12:51:22;96684.84;;;-6.76;40.34
49943;BME280;36011;53.362;58.948;2024-01-30T12:54:25;96681.44;;;-6.87;40.22
49943;BME280;36011;53.362;58.948;2024-01-30T12:57:26;96674.63;;;-6.99;40.50
49943;BME280;36011;53.362;58.948;2024-01-30T13:00:28;96667.78;;;-7.12;41.06
49943;BME280;36011;53.362;58.948;2024-01-30T13:03:29;96672.00;;;-7.25;41.19
49943;BME280;36011;53.362;58.948;2024-01-30T13:06:32;96681.38;;;-7.35;41.02
49943;BME280;36011;53.362;58.948;2024-01-30T13:09:35;96679.66;;;-7.43;41.17
49943;BME280;36011;53.362;58.948;2024-01-30T13:12:41;96674.50;;;-7.56;41.58
49943;BME280;36011;53.362;58.948;2024-01-30T13:15:45;96678.72;;;-7.70;41.30
49943;BME280;36011;53.362;58.948;2024-01-30T13:18:48;96675.25;;;-7.84;41.72
49943;BME280;36011;53.362;58.948;2024-01-30T13:21:51;96670.94;;;-7.99;42.31
49943;BME280;36011;53.362;58.948;2024-01-30T13:24:56;96678.53;;;-8.15;42.01
49943;BME280;36011;53.362;58.948;2024-01-30T13:27:57;96671.63;;;-8.29;42.23
49943;BME280;36011;53.362;58.948;2024-01-30T13:31:01;96664.81;;;-8.43;41.87
49943;BME280;36011;53.362;58.948;2024-01-30T13:34:07;96662.22;;;-8.50;41.94
49943;BME280;36011;53.362;58.948;2024-01-30T13:37:12;96648.53;;;-8.59;42.84
49943;BME280;36011;53.362;58.948;2024-01-30T13:40:19;96648.50;;;-8.65;42.24
49943;BME280;36011;53.362;58.948;2024-01-30T13:43:23;96642.53;;;-8.71;42.22
49943;BME280;36011;53.362;58.948;2024-01-30T13:46:26;96638.22;;;-8.78;42.59
49943;BME280;36011;53.362;58.948;2024-01-30T13:49:27;96636.50;;;-8.86;42.71
49943;BME280;36011;53.362;58.948;2024-01-30T13:52:28;96641.50;;;-8.92;42.59
49943;BME280;36011;53.362;58.948;2024-01-30T13:55:33;96622.78;;;-8.98;42.84
49943;BME280;36011;53.362;58.948;2024-01-30T13:58:35;96622.72;;;-9.08;43.50
49943;BME280;36011;53.362;58.948;2024-01-30T14:01:42;96628.63;;;-9.12;42.89
49943;BME280;36011;53.362;58.948;2024-01-30T14:04:45;96620.09;;;-9.18;43.07
49943;BME280;36011;53.362;58.948;2024-01-30T14:07:51;96624.28;;;-9.25;43.41
49943;BME280;36011;53.362;58.948;2024-01-30T14:10:54;96624.25;;;-9.30;42.32
49943;BME280;36011;53.362;58.948;2024-01-30T14:14:00;96619.09;;;-9.34;42.93
49943;BME280;36011;53.362;58.948;2024-01-30T14:17:01;96613.97;;;-9.37;43.53
49943;BME280;36011;53.362;58.948;2024-01-30T14:20:02;96613.25;;;-9.24;45.51
49943;BME280;36011;53.362;58.948;2024-01-30T14:23:05;96611.41;;;-9.42;45.66
49943;BME280;36011;53.362;58.948;2024-01-30T14:26:08;96614.72;;;-9.51;47.01
49943;BME280;36011;53.362;58.948;2024-01-30T14:29:11;96603.78;;;-9.39;46.68
49943;BME280;36011;53.362;58.948;2024-01-30T14:32:12;96604.59;;;-9.43;48.42
49943;BME280;36011;53.362;58.948;2024-01-30T14:35:16;96602.81;;;-9.52;48.19
49943;BME280;36011;53.362;58.948;2024-01-30T14:38:19;96602.75;;;-9.59;47.86
49943;BME280;36011;53.362;58.948;2024-01-30T14:41:22;96601.81;;;-9.69;47.45
49943;BME280;36011;53.362;58.948;2024-01-30T14:44:23;96593.22;;;-9.80;47.77
49943;BME280;36011;53.362;58.948;2024-01-30T14:47:27;96583.03;;;-9.80;46.77
49943;BME280;36011;53.362;58.948;2024-01-30T14:50:34;96582.97;;;-9.86;47.53
49943;BME280;36011;53.362;58.948;2024-01-30T14:53:35;96575.25;;;-9.96;46.23
49943;BME280;36011;53.362;58.948;2024-01-30T14:56:36;96572.59;;;-10.05;46.71
49943;BME280;36011;53.362;58.948;2024-01-30T14:59:40;96569.16;;;-10.10;47.01
49943;BME280;36011;53.362;58.948;2024-01-30T15:02:46;96569.13;;;-10.11;47.04
49943;BME280;36011;53.362;58.948;2024-01-30T15:05:50;96563.97;;;-10.19;47.33
49943;BME280;36011;53.362;58.948;2024-01-30T15:08:51;96560.50;;;-10.26;47.11
49943;BME280;36011;53.362;58.948;2024-01-30T15:11:55;96561.34;;;-10.30;47.24
49943;BME280;36011;53.362;58.948;2024-01-30T15:14:56;96561.38;;;-10.27;47.12
49943;BME280;36011;53.362;58.948;2024-01-30T15:17:57;96555.63;;;-10.06;49.61
49943;BME280;36011;53.362;58.948;2024-01-30T15:21:02;96553.78;;;-10.21;49.98
49943;BME280;36011;53.362;58.948;2024-01-30T15:24:05;96547.03;;;-10.19;51.99
49943;BME280;36011;53.362;58.948;2024-01-30T15:27:09;96556.25;;;-10.25;52.73
49943;BME280;36011;53.362;58.948;2024-01-30T15:30:13;96559.63;;;-10.32;53.37
49943;BME280;36011;53.362;58.948;2024-01-30T15:33:17;96556.09;;;-10.42;53.51
49943;BME280;36011;53.362;58.948;2024-01-30T15:36:23;96551.75;;;-10.51;53.70
49943;BME280;36011;53.362;58.948;2024-01-30T15:39:25;96557.66;;;-10.53;54.79
49943;BME280;36011;53.362;58.948;2024-01-30T15:42:30;96554.00;;;-10.77;54.19
49943;BME280;36011;53.362;58.948;2024-01-30T15:45:31;96554.78;;;-10.82;53.84
49943;BME280;36011;53.362;58.948;2024-01-30T15:48:35;96547.91;;;-10.90;54.11
49943;BME280;36011;53.362;58.948;2024-01-30T15:51:36;96536.75;;;-10.99;54.12
49943;BME280;36011;53.362;58.948;2024-01-30T15:54:41;96535.84;;;-11.06;53.60
49943;BME280;36011;53.362;58.948;2024-01-30T15:58:04;96536.56;;;-11.15;53.37
49943;BME280;36011;53.362;58.948;2024-01-30T16:01:28;96533.91;;;-11.22;52.73